sensor_id;sensor_type;location;lat;lon;timestamp;temperature;humidity
19803;DHT22;66074;50.764;6.090;2023-06-14T00:01:41;22.10;65.90
19803;DHT22;66074;50.764;6.090;2023-06-14T00:04:14;22.10;67.80
19803;DHT22;66074;50.764;6.090;2023-06-14T00:06:42;22.00;66.30
19803;DHT22;66074;50.764;6.090;2023-06-14T00:09:11;22.00;67.00
19803;DHT22;66074;50.764;6.090;2023-06-14T00:11:39;21.90;67.40
19803;DHT22;66074;50.764;6.090;2023-06-14T00:14:05;21.90;66.90
19803;DHT22;66074;50.764;6.090;2023-06-14T00:16:30;21.80;68.20
19803;DHT22;66074;50.764;6.090;2023-06-14T00:18:58;21.70;68.20
19803;DHT22;66074;50.764;6.090;2023-06-14T00:21:23;21.60;68.40
19803;DHT22;66074;50.764;6.090;2023-06-14T00:23:49;21.60;68.00
19803;DHT22;66074;50.764;6.090;2023-06-14T00:26:17;21.50;68.20
19803;DHT22;66074;50.764;6.090;2023-06-14T00:28:43;21.50;67.60
19803;DHT22;66074;50.764;6.090;2023-06-14T00:31:09;21.50;68.20
19803;DHT22;66074;50.764;6.090;2023-06-14T00:33:34;21.50;67.80
19803;DHT22;66074;50.764;6.090;2023-06-14T00:36:00;21.40;67.70
19803;DHT22;66074;50.764;6.090;2023-06-14T00:38:26;21.30;68.60
19803;DHT22;66074;50.764;6.090;2023-06-14T00:40:51;21.30;68.40
19803;DHT22;66074;50.764;6.090;2023-06-14T00:43:17;21.20;68.50
19803;DHT22;66074;50.764;6.090;2023-06-14T00:45:42;21.20;67.80
19803;DHT22;66074;50.764;6.090;2023-06-14T00:48:09;21.10;67.90
19803;DHT22;66074;50.764;6.090;2023-06-14T00:50:36;21.10;67.60
19803;DHT22;66074;50.764;6.090;2023-06-14T00:53:02;21.10;68.00
19803;DHT22;66074;50.764;6.090;2023-06-14T00:55:28;21.00;68.50
19803;DHT22;66074;50.764;6.090;2023-06-14T00:57:55;20.90;68.20
19803;DHT22;66074;50.764;6.090;2023-06-14T01:00:21;20.90;69.10
19803;DHT22;66074;50.764;6.090;2023-06-14T01:02:47;20.80;69.20
19803;DHT22;66074;50.764;6.090;2023-06-14T01:05:14;20.80;68.70
19803;DHT22;66074;50.764;6.090;2023-06-14T01:13:20;20.70;68.90
19803;DHT22;66074;50.764;6.090;2023-06-14T01:15:47;20.70;68.50
19803;DHT22;66074;50.764;6.090;2023-06-14T01:18:13;20.70;67.70
19803;DHT22;66074;50.764;6.090;2023-06-14T01:20:46;20.70;68.40
19803;DHT22;66074;50.764;6.090;2023-06-14T01:23:17;20.70;69.50
19803;DHT22;66074;50.764;6.090;2023-06-14T01:25:43;20.80;68.80
19803;DHT22;66074;50.764;6.090;2023-06-14T01:28:11;20.70;68.50
19803;DHT22;66074;50.764;6.090;2023-06-14T01:30:40;20.70;69.50
19803;DHT22;66074;50.764;6.090;2023-06-14T01:33:14;20.70;68.90
19803;DHT22;66074;50.764;6.090;2023-06-14T01:35:46;20.70;68.00
19803;DHT22;66074;50.764;6.090;2023-06-14T01:38:13;20.70;68.40
19803;DHT22;66074;50.764;6.090;2023-06-14T01:40:39;20.60;69.50
19803;DHT22;66074;50.764;6.090;2023-06-14T01:43:06;20.50;69.40
19803;DHT22;66074;50.764;6.090;2023-06-14T01:45:33;20.50;69.30
19803;DHT22;66074;50.764;6.090;2023-06-14T01:48:00;20.40;69.10
19803;DHT22;66074;50.764;6.090;2023-06-14T01:50:32;20.40;69.10
19803;DHT22;66074;50.764;6.090;2023-06-14T01:52:57;20.40;69.60
19803;DHT22;66074;50.764;6.090;2023-06-14T01:55:23;20.40;69.10
19803;DHT22;66074;50.764;6.090;2023-06-14T01:57:53;20.40;69.50
19803;DHT22;66074;50.764;6.090;2023-06-14T02:00:20;20.30;69.30
19803;DHT22;66074;50.764;6.090;2023-06-14T02:02:46;20.30;69.20
19803;DHT22;66074;50.764;6.090;2023-06-14T02:05:12;20.20;70.00
19803;DHT22;66074;50.764;6.090;2023-06-14T02:07:38;20.30;68.50
19803;DHT22;66074;50.764;6.090;2023-06-14T02:10:04;20.20;69.10
19803;DHT22;66074;50.764;6.090;2023-06-14T02:12:30;20.10;70.00
19803;DHT22;66074;50.764;6.090;2023-06-14T02:14:56;20.00;70.30
19803;DHT22;66074;50.764;6.090;2023-06-14T02:17:22;19.90;70.80
19803;DHT22;66074;50.764;6.090;2023-06-14T02:19:48;20.00;70.50
19803;DHT22;66074;50.764;6.090;2023-06-14T02:22:14;20.00;70.40
19803;DHT22;66074;50.764;6.090;2023-06-14T02:24:41;20.10;70.20
19803;DHT22;66074;50.764;6.090;2023-06-14T02:27:07;20.10;70.40
19803;DHT22;66074;50.764;6.090;2023-06-14T02:29:35;20.00;70.10
19803;DHT22;66074;50.764;6.090;2023-06-14T02:32:01;19.90;69.90
19803;DHT22;66074;50.764;6.090;2023-06-14T02:34:26;20.00;69.80
19803;DHT22;66074;50.764;6.090;2023-06-14T02:36:52;19.90;71.00
19803;DHT22;66074;50.764;6.090;2023-06-14T02:39:18;19.90;71.20
19803;DHT22;66074;50.764;6.090;2023-06-14T02:41:46;19.90;70.90
19803;DHT22;66074;50.764;6.090;2023-06-14T02:44:13;19.90;70.70
19803;DHT22;66074;50.764;6.090;2023-06-14T02:46:39;19.80;70.10
19803;DHT22;66074;50.764;6.090;2023-06-14T02:49:05;19.80;70.50
19803;DHT22;66074;50.764;6.090;2023-06-14T02:51:30;19.80;70.00
19803;DHT22;66074;50.764;6.090;2023-06-14T02:53:56;19.80;70.00
19803;DHT22;66074;50.764;6.090;2023-06-14T02:56:22;19.80;70.00
19803;DHT22;66074;50.764;6.090;2023-06-14T02:58:48;19.90;70.00
19803;DHT22;66074;50.764;6.090;2023-06-14T03:01:17;19.80;70.20
19803;DHT22;66074;50.764;6.090;2023-06-14T03:03:43;19.80;70.50
19803;DHT22;66074;50.764;6.090;2023-06-14T03:06:09;19.80;70.30
19803;DHT22;66074;50.764;6.090;2023-06-14T03:08:38;19.80;70.10
19803;DHT22;66074;50.764;6.090;2023-06-14T03:11:04;19.90;70.40
19803;DHT22;66074;50.764;6.090;2023-06-14T03:13:36;19.80;70.50
19803;DHT22;66074;50.764;6.090;2023-06-14T03:16:02;19.80;70.60
19803;DHT22;66074;50.764;6.090;2023-06-14T03:18:29;19.80;70.10
19803;DHT22;66074;50.764;6.090;2023-06-14T03:20:56;19.80;70.80
19803;DHT22;66074;50.764;6.090;2023-06-14T03:23:24;19.80;70.40
19803;DHT22;66074;50.764;6.090;2023-06-14T03:25:50;19.80;70.40
19803;DHT22;66074;50.764;6.090;2023-06-14T03:28:17;19.80;70.70
19803;DHT22;66074;50.764;6.090;2023-06-14T03:30:42;19.80;70.80
19803;DHT22;66074;50.764;6.090;2023-06-14T03:33:08;19.90;70.60
19803;DHT22;66074;50.764;6.090;2023-06-14T03:35:34;19.80;70.60
19803;DHT22;66074;50.764;6.090;2023-06-14T03:37:59;19.80;70.50
19803;DHT22;66074;50.764;6.090;2023-06-14T03:40:25;19.80;70.90
19803;DHT22;66074;50.764;6.090;2023-06-14T03:42:53;19.80;70.50
19803;DHT22;66074;50.764;6.090;2023-06-14T03:45:19;19.90;70.70
19803;DHT22;66074;50.764;6.090;2023-06-14T03:47:45;19.90;70.80
19803;DHT22;66074;50.764;6.090;2023-06-14T03:50:10;19.90;70.70
19803;DHT22;66074;50.764;6.090;2023-06-14T03:52:36;19.90;70.70
19803;DHT22;66074;50.764;6.090;2023-06-14T03:55:02;19.90;71.00
19803;DHT22;66074;50.764;6.090;2023-06-14T03:57:29;19.90;71.00
19803;DHT22;66074;50.764;6.090;2023-06-14T03:59:54;19.90;71.20
19803;DHT22;66074;50.764;6.090;2023-06-14T04:02:20;19.90;70.80
19803;DHT22;66074;50.764;6.090;2023-06-14T04:04:46;20.00;71.10
19803;DHT22;66074;50.764;6.090;2023-06-14T04:07:12;20.00;71.10
19803;DHT22;66074;50.764;6.090;2023-06-14T04:09:38;20.00;71.80
19803;DHT22;66074;50.764;6.090;2023-06-14T04:12:05;19.90;71.00
19803;DHT22;66074;50.764;6.090;2023-06-14T04:14:31;19.90;71.70
19803;DHT22;66074;50.764;6.090;2023-06-14T04:16:58;19.80;71.90
19803;DHT22;66074;50.764;6.090;2023-06-14T04:19:24;19.80;71.40
19803;DHT22;66074;50.764;6.090;2023-06-14T04:21:49;19.80;71.70
19803;DHT22;66074;50.764;6.090;2023-06-14T04:24:15;19.80;71.80
19803;DHT22;66074;50.764;6.090;2023-06-14T04:26:42;19.80;71.90
19803;DHT22;66074;50.764;6.090;2023-06-14T04:29:13;19.90;71.70
19803;DHT22;66074;50.764;6.090;2023-06-14T04:31:45;19.90;71.80
19803;DHT22;66074;50.764;6.090;2023-06-14T04:34:12;19.90;71.80
19803;DHT22;66074;50.764;6.090;2023-06-14T04:36:42;19.90;72.50
19803;DHT22;66074;50.764;6.090;2023-06-14T04:39:17;19.90;71.90
19803;DHT22;66074;50.764;6.090;2023-06-14T04:41:43;19.80;71.60
19803;DHT22;66074;50.764;6.090;2023-06-14T04:44:10;19.90;71.80
19803;DHT22;66074;50.764;6.090;2023-06-14T04:46:36;19.90;71.90
19803;DHT22;66074;50.764;6.090;2023-06-14T04:49:20;19.90;71.90
19803;DHT22;66074;50.764;6.090;2023-06-14T04:51:46;19.90;72.00
19803;DHT22;66074;50.764;6.090;2023-06-14T04:54:12;19.90;71.90
19803;DHT22;66074;50.764;6.090;2023-06-14T04:56:41;20.00;71.90
19803;DHT22;66074;50.764;6.090;2023-06-14T04:59:13;20.00;71.90
19803;DHT22;66074;50.764;6.090;2023-06-14T05:01:40;20.00;72.00
19803;DHT22;66074;50.764;6.090;2023-06-14T05:04:06;20.00;71.90
19803;DHT22;66074;50.764;6.090;2023-06-14T05:06:32;20.10;71.90
19803;DHT22;66074;50.764;6.090;2023-06-14T05:08:58;20.10;71.90
19803;DHT22;66074;50.764;6.090;2023-06-14T05:11:24;20.10;71.90
19803;DHT22;66074;50.764;6.090;2023-06-14T05:13:50;20.10;71.90
19803;DHT22;66074;50.764;6.090;2023-06-14T05:16:17;20.10;71.90
19803;DHT22;66074;50.764;6.090;2023-06-14T05:18:45;20.20;71.80
19803;DHT22;66074;50.764;6.090;2023-06-14T05:21:11;20.10;71.90
19803;DHT22;66074;50.764;6.090;2023-06-14T05:23:36;20.10;71.70
19803;DHT22;66074;50.764;6.090;2023-06-14T05:26:02;20.10;71.60
19803;DHT22;66074;50.764;6.090;2023-06-14T05:28:29;20.10;71.70
19803;DHT22;66074;50.764;6.090;2023-06-14T05:30:56;20.10;71.60
19803;DHT22;66074;50.764;6.090;2023-06-14T05:33:22;20.10;71.60
19803;DHT22;66074;50.764;6.090;2023-06-14T05:36:22;20.20;71.50
19803;DHT22;66074;50.764;6.090;2023-06-14T05:39:13;20.20;71.40
19803;DHT22;66074;50.764;6.090;2023-06-14T05:41:49;20.30;71.30
19803;DHT22;66074;50.764;6.090;2023-06-14T05:44:15;20.40;71.00
19803;DHT22;66074;50.764;6.090;2023-06-14T05:46:41;20.40;71.00
19803;DHT22;66074;50.764;6.090;2023-06-14T05:49:06;20.40;71.00
19803;DHT22;66074;50.764;6.090;2023-06-14T05:51:32;20.50;71.10
19803;DHT22;66074;50.764;6.090;2023-06-14T05:54:01;20.40;71.40
19803;DHT22;66074;50.764;6.090;2023-06-14T05:56:28;20.50;71.10
19803;DHT22;66074;50.764;6.090;2023-06-14T05:58:54;20.50;71.10
19803;DHT22;66074;50.764;6.090;2023-06-14T06:01:19;20.60;71.30
19803;DHT22;66074;50.764;6.090;2023-06-14T06:03:45;20.60;71.10
19803;DHT22;66074;50.764;6.090;2023-06-14T06:06:12;20.70;71.30
19803;DHT22;66074;50.764;6.090;2023-06-14T06:08:37;20.70;71.20
19803;DHT22;66074;50.764;6.090;2023-06-14T06:11:03;20.80;72.00
19803;DHT22;66074;50.764;6.090;2023-06-14T06:13:51;20.70;71.20
19803;DHT22;66074;50.764;6.090;2023-06-14T06:16:20;20.70;71.00
19803;DHT22;66074;50.764;6.090;2023-06-14T06:18:46;20.70;71.20
19803;DHT22;66074;50.764;6.090;2023-06-14T06:21:14;20.70;70.90
19803;DHT22;66074;50.764;6.090;2023-06-14T06:23:40;20.70;70.60
19803;DHT22;66074;50.764;6.090;2023-06-14T06:26:06;20.70;70.80
19803;DHT22;66074;50.764;6.090;2023-06-14T06:28:32;20.70;70.80
19803;DHT22;66074;50.764;6.090;2023-06-14T06:30:58;20.70;70.60
19803;DHT22;66074;50.764;6.090;2023-06-14T06:33:23;20.80;70.90
19803;DHT22;66074;50.764;6.090;2023-06-14T06:35:49;20.90;70.60
19803;DHT22;66074;50.764;6.090;2023-06-14T06:38:15;20.90;70.60
19803;DHT22;66074;50.764;6.090;2023-06-14T06:40:40;21.00;70.60
19803;DHT22;66074;50.764;6.090;2023-06-14T06:43:06;21.00;70.70
19803;DHT22;66074;50.764;6.090;2023-06-14T06:45:32;21.00;69.80
19803;DHT22;66074;50.764;6.090;2023-06-14T06:47:58;21.00;69.70
19803;DHT22;66074;50.764;6.090;2023-06-14T06:50:24;21.00;70.40
19803;DHT22;66074;50.764;6.090;2023-06-14T06:52:50;21.10;70.10
19803;DHT22;66074;50.764;6.090;2023-06-14T06:55:16;21.20;69.70
19803;DHT22;66074;50.764;6.090;2023-06-14T06:57:43;21.20;69.80
19803;DHT22;66074;50.764;6.090;2023-06-14T07:00:09;21.30;69.70
19803;DHT22;66074;50.764;6.090;2023-06-14T07:02:36;21.30;69.40
19803;DHT22;66074;50.764;6.090;2023-06-14T07:05:02;21.40;69.00
19803;DHT22;66074;50.764;6.090;2023-06-14T07:07:27;21.40;68.80
19803;DHT22;66074;50.764;6.090;2023-06-14T07:09:53;21.40;69.30
19803;DHT22;66074;50.764;6.090;2023-06-14T07:12:19;21.50;68.50
19803;DHT22;66074;50.764;6.090;2023-06-14T07:14:45;21.50;67.80
19803;DHT22;66074;50.764;6.090;2023-06-14T07:17:11;21.50;68.10
19803;DHT22;66074;50.764;6.090;2023-06-14T07:19:36;21.50;68.40
19803;DHT22;66074;50.764;6.090;2023-06-14T07:22:02;21.50;68.30
19803;DHT22;66074;50.764;6.090;2023-06-14T07:24:28;21.50;68.80
19803;DHT22;66074;50.764;6.090;2023-06-14T07:26:54;21.50;68.80
19803;DHT22;66074;50.764;6.090;2023-06-14T07:29:20;21.50;68.80
19803;DHT22;66074;50.764;6.090;2023-06-14T07:31:46;21.50;68.00
19803;DHT22;66074;50.764;6.090;2023-06-14T07:34:13;21.40;67.80
19803;DHT22;66074;50.764;6.090;2023-06-14T07:36:39;21.50;68.70
19803;DHT22;66074;50.764;6.090;2023-06-14T07:39:05;21.50;68.00
19803;DHT22;66074;50.764;6.090;2023-06-14T07:41:32;21.60;68.00
19803;DHT22;66074;50.764;6.090;2023-06-14T07:43:58;21.60;68.00
19803;DHT22;66074;50.764;6.090;2023-06-14T07:46:23;21.60;67.60
19803;DHT22;66074;50.764;6.090;2023-06-14T07:48:49;21.50;67.40
19803;DHT22;66074;50.764;6.090;2023-06-14T07:51:15;21.50;67.90
19803;DHT22;66074;50.764;6.090;2023-06-14T07:53:40;21.60;67.80
19803;DHT22;66074;50.764;6.090;2023-06-14T07:56:09;21.60;68.00
19803;DHT22;66074;50.764;6.090;2023-06-14T07:58:34;21.70;68.20
19803;DHT22;66074;50.764;6.090;2023-06-14T08:01:00;21.80;67.20
19803;DHT22;66074;50.764;6.090;2023-06-14T08:03:28;21.80;66.90
19803;DHT22;66074;50.764;6.090;2023-06-14T08:05:55;21.90;67.50
19803;DHT22;66074;50.764;6.090;2023-06-14T08:08:21;21.90;65.70
19803;DHT22;66074;50.764;6.090;2023-06-14T08:10:46;21.80;66.00
19803;DHT22;66074;50.764;6.090;2023-06-14T08:13:12;21.90;66.30
19803;DHT22;66074;50.764;6.090;2023-06-14T08:15:38;21.90;66.30
19803;DHT22;66074;50.764;6.090;2023-06-14T08:18:04;22.00;67.40
19803;DHT22;66074;50.764;6.090;2023-06-14T08:20:29;22.00;65.40
19803;DHT22;66074;50.764;6.090;2023-06-14T08:22:57;22.00;66.40
19803;DHT22;66074;50.764;6.090;2023-06-14T08:25:23;22.00;64.70
19803;DHT22;66074;50.764;6.090;2023-06-14T08:27:49;22.00;64.90
19803;DHT22;66074;50.764;6.090;2023-06-14T08:30:15;22.00;64.80
19803;DHT22;66074;50.764;6.090;2023-06-14T08:32:43;22.10;65.80
19803;DHT22;66074;50.764;6.090;2023-06-14T08:35:08;22.10;65.10
19803;DHT22;66074;50.764;6.090;2023-06-14T08:37:38;22.10;65.80
19803;DHT22;66074;50.764;6.090;2023-06-14T08:40:15;22.20;65.50
19803;DHT22;66074;50.764;6.090;2023-06-14T08:42:43;22.10;64.20
19803;DHT22;66074;50.764;6.090;2023-06-14T08:45:09;22.20;65.40
19803;DHT22;66074;50.764;6.090;2023-06-14T08:47:35;22.30;65.90
19803;DHT22;66074;50.764;6.090;2023-06-14T08:50:03;22.30;66.90
19803;DHT22;66074;50.764;6.090;2023-06-14T08:52:33;22.40;65.30
19803;DHT22;66074;50.764;6.090;2023-06-14T08:55:06;22.50;64.20
19803;DHT22;66074;50.764;6.090;2023-06-14T08:57:36;22.50;64.60
19803;DHT22;66074;50.764;6.090;2023-06-14T09:00:03;22.40;64.00
19803;DHT22;66074;50.764;6.090;2023-06-14T09:02:41;22.50;65.70
19803;DHT22;66074;50.764;6.090;2023-06-14T09:05:10;22.50;64.40
19803;DHT22;66074;50.764;6.090;2023-06-14T09:07:37;22.60;66.70
19803;DHT22;66074;50.764;6.090;2023-06-14T09:10:22;22.70;66.30
19803;DHT22;66074;50.764;6.090;2023-06-14T09:12:48;22.70;63.60
19803;DHT22;66074;50.764;6.090;2023-06-14T09:15:14;22.70;62.30
19803;DHT22;66074;50.764;6.090;2023-06-14T09:17:40;22.60;61.90
19803;DHT22;66074;50.764;6.090;2023-06-14T09:20:07;22.60;62.20
19803;DHT22;66074;50.764;6.090;2023-06-14T09:22:37;22.70;63.20
19803;DHT22;66074;50.764;6.090;2023-06-14T09:25:03;22.70;63.80
19803;DHT22;66074;50.764;6.090;2023-06-14T09:27:31;22.70;63.20
19803;DHT22;66074;50.764;6.090;2023-06-14T09:29:56;22.80;62.80
19803;DHT22;66074;50.764;6.090;2023-06-14T09:32:22;22.70;62.50
19803;DHT22;66074;50.764;6.090;2023-06-14T09:34:48;22.70;62.90
19803;DHT22;66074;50.764;6.090;2023-06-14T09:37:30;22.80;63.90
19803;DHT22;66074;50.764;6.090;2023-06-14T09:39:57;22.90;63.50
19803;DHT22;66074;50.764;6.090;2023-06-14T09:42:23;22.80;61.70
19803;DHT22;66074;50.764;6.090;2023-06-14T09:44:52;22.70;62.80
19803;DHT22;66074;50.764;6.090;2023-06-14T09:47:19;22.70;61.10
19803;DHT22;66074;50.764;6.090;2023-06-14T09:49:46;22.70;62.80
19803;DHT22;66074;50.764;6.090;2023-06-14T09:52:18;22.70;62.30
19803;DHT22;66074;50.764;6.090;2023-06-14T09:54:45;22.70;62.10
19803;DHT22;66074;50.764;6.090;2023-06-14T09:57:22;22.70;62.10
19803;DHT22;66074;50.764;6.090;2023-06-14T09:59:52;22.70;62.10
19803;DHT22;66074;50.764;6.090;2023-06-14T10:02:35;22.70;62.60
19803;DHT22;66074;50.764;6.090;2023-06-14T10:07:33;22.80;61.80
19803;DHT22;66074;50.764;6.090;2023-06-14T10:10:01;22.80;63.00
19803;DHT22;66074;50.764;6.090;2023-06-14T10:12:26;22.90;62.90
19803;DHT22;66074;50.764;6.090;2023-06-14T10:14:53;22.90;63.40
19803;DHT22;66074;50.764;6.090;2023-06-14T10:18:44;23.00;63.20
19803;DHT22;66074;50.764;6.090;2023-06-14T10:20:49;23.10;62.20
19803;DHT22;66074;50.764;6.090;2023-06-14T10:23:19;23.00;61.70
19803;DHT22;66074;50.764;6.090;2023-06-14T10:25:50;23.00;61.60
19803;DHT22;66074;50.764;6.090;2023-06-14T10:28:18;23.00;61.00
19803;DHT22;66074;50.764;6.090;2023-06-14T10:31:09;23.00;61.50
19803;DHT22;66074;50.764;6.090;2023-06-14T10:33:39;23.00;60.90
19803;DHT22;66074;50.764;6.090;2023-06-14T10:39:16;23.10;61.50
19803;DHT22;66074;50.764;6.090;2023-06-14T10:41:51;23.20;61.80
19803;DHT22;66074;50.764;6.090;2023-06-14T10:46:49;23.30;62.00
19803;DHT22;66074;50.764;6.090;2023-06-14T10:49:36;23.30;61.80
19803;DHT22;66074;50.764;6.090;2023-06-14T10:52:14;23.30;61.30
19803;DHT22;66074;50.764;6.090;2023-06-14T10:55:12;23.30;60.40
19803;DHT22;66074;50.764;6.090;2023-06-14T10:57:51;23.40;61.10
19803;DHT22;66074;50.764;6.090;2023-06-14T11:00:21;23.50;59.10
19803;DHT22;66074;50.764;6.090;2023-06-14T11:05:42;23.60;58.60
19803;DHT22;66074;50.764;6.090;2023-06-14T11:08:51;23.50;57.10
19803;DHT22;66074;50.764;6.090;2023-06-14T11:11:22;23.50;58.20
19803;DHT22;66074;50.764;6.090;2023-06-14T11:13:49;23.60;56.90
19803;DHT22;66074;50.764;6.090;2023-06-14T11:16:17;23.60;57.10
19803;DHT22;66074;50.764;6.090;2023-06-14T11:18:44;23.60;56.60
19803;DHT22;66074;50.764;6.090;2023-06-14T11:21:10;23.60;57.60
19803;DHT22;66074;50.764;6.090;2023-06-14T11:23:36;23.60;58.40
19803;DHT22;66074;50.764;6.090;2023-06-14T11:26:02;23.60;56.30
19803;DHT22;66074;50.764;6.090;2023-06-14T11:28:39;23.60;56.40
19803;DHT22;66074;50.764;6.090;2023-06-14T11:31:05;23.60;55.30
19803;DHT22;66074;50.764;6.090;2023-06-14T11:33:31;23.70;55.90
19803;DHT22;66074;50.764;6.090;2023-06-14T11:35:57;23.70;56.50
19803;DHT22;66074;50.764;6.090;2023-06-14T11:38:23;23.60;57.20
19803;DHT22;66074;50.764;6.090;2023-06-14T11:40:50;23.70;56.70
19803;DHT22;66074;50.764;6.090;2023-06-14T11:43:15;23.70;55.40
19803;DHT22;66074;50.764;6.090;2023-06-14T11:45:42;23.70;57.00
19803;DHT22;66074;50.764;6.090;2023-06-14T11:48:08;23.70;57.20
19803;DHT22;66074;50.764;6.090;2023-06-14T11:50:37;23.80;57.50
19803;DHT22;66074;50.764;6.090;2023-06-14T11:53:04;23.80;57.70
19803;DHT22;66074;50.764;6.090;2023-06-14T11:55:38;23.90;57.60
19803;DHT22;66074;50.764;6.090;2023-06-14T11:58:05;23.90;57.20
19803;DHT22;66074;50.764;6.090;2023-06-14T12:00:31;23.90;57.00
19803;DHT22;66074;50.764;6.090;2023-06-14T12:02:57;24.00;57.50
19803;DHT22;66074;50.764;6.090;2023-06-14T12:05:24;24.00;57.80
19803;DHT22;66074;50.764;6.090;2023-06-14T12:07:58;23.90;57.50
19803;DHT22;66074;50.764;6.090;2023-06-14T12:10:25;23.90;58.00
19803;DHT22;66074;50.764;6.090;2023-06-14T12:12:57;23.90;57.60
19803;DHT22;66074;50.764;6.090;2023-06-14T12:15:23;24.00;58.40
19803;DHT22;66074;50.764;6.090;2023-06-14T12:17:49;24.00;57.50
19803;DHT22;66074;50.764;6.090;2023-06-14T12:20:16;24.00;57.50
19803;DHT22;66074;50.764;6.090;2023-06-14T12:22:56;24.10;58.80
19803;DHT22;66074;50.764;6.090;2023-06-14T12:25:29;24.10;58.60
19803;DHT22;66074;50.764;6.090;2023-06-14T12:27:59;24.10;58.70
19803;DHT22;66074;50.764;6.090;2023-06-14T12:30:28;24.10;58.70
19803;DHT22;66074;50.764;6.090;2023-06-14T12:32:54;24.20;58.60
19803;DHT22;66074;50.764;6.090;2023-06-14T12:35:20;24.20;59.00
19803;DHT22;66074;50.764;6.090;2023-06-14T12:37:46;24.30;59.10
19803;DHT22;66074;50.764;6.090;2023-06-14T12:40:12;24.50;59.20
19803;DHT22;66074;50.764;6.090;2023-06-14T12:42:38;24.60;58.60
19803;DHT22;66074;50.764;6.090;2023-06-14T12:45:04;24.70;57.20
19803;DHT22;66074;50.764;6.090;2023-06-14T12:47:30;24.70;58.10
19803;DHT22;66074;50.764;6.090;2023-06-14T12:49:56;24.70;58.70
19803;DHT22;66074;50.764;6.090;2023-06-14T12:52:21;24.80;59.00
19803;DHT22;66074;50.764;6.090;2023-06-14T12:54:47;24.90;58.60
19803;DHT22;66074;50.764;6.090;2023-06-14T12:57:12;24.90;58.40
19803;DHT22;66074;50.764;6.090;2023-06-14T12:59:41;24.90;57.70
19803;DHT22;66074;50.764;6.090;2023-06-14T13:02:14;25.00;58.30
19803;DHT22;66074;50.764;6.090;2023-06-14T13:04:43;25.10;58.90
19803;DHT22;66074;50.764;6.090;2023-06-14T13:07:09;25.30;58.50
19803;DHT22;66074;50.764;6.090;2023-06-14T13:09:36;25.50;57.80
19803;DHT22;66074;50.764;6.090;2023-06-14T13:12:02;25.70;58.90
19803;DHT22;66074;50.764;6.090;2023-06-14T13:14:28;26.00;57.40
19803;DHT22;66074;50.764;6.090;2023-06-14T13:16:54;26.10;56.60
19803;DHT22;66074;50.764;6.090;2023-06-14T13:19:21;26.20;56.40
19803;DHT22;66074;50.764;6.090;2023-06-14T13:21:47;26.80;55.00
19803;DHT22;66074;50.764;6.090;2023-06-14T13:24:13;28.00;55.50
19803;DHT22;66074;50.764;6.090;2023-06-14T13:26:38;29.30;54.10
19803;DHT22;66074;50.764;6.090;2023-06-14T13:29:04;30.70;51.50
19803;DHT22;66074;50.764;6.090;2023-06-14T13:31:29;31.70;53.40
19803;DHT22;66074;50.764;6.090;2023-06-14T13:33:55;32.20;48.50
19803;DHT22;66074;50.764;6.090;2023-06-14T13:36:27;33.40;50.60
19803;DHT22;66074;50.764;6.090;2023-06-14T13:38:53;34.70;52.50
19803;DHT22;66074;50.764;6.090;2023-06-14T13:41:20;35.90;52.30
19803;DHT22;66074;50.764;6.090;2023-06-14T13:43:46;36.20;45.60
19803;DHT22;66074;50.764;6.090;2023-06-14T13:46:11;36.10;44.90
19803;DHT22;66074;50.764;6.090;2023-06-14T13:48:37;36.30;44.70
19803;DHT22;66074;50.764;6.090;2023-06-14T13:51:02;36.80;45.30
19803;DHT22;66074;50.764;6.090;2023-06-14T13:53:29;37.00;43.00
19803;DHT22;66074;50.764;6.090;2023-06-14T13:55:55;37.30;43.90
19803;DHT22;66074;50.764;6.090;2023-06-14T13:58:21;38.00;44.60
19803;DHT22;66074;50.764;6.090;2023-06-14T14:00:46;38.10;47.20
19803;DHT22;66074;50.764;6.090;2023-06-14T14:03:12;37.60;47.70
19803;DHT22;66074;50.764;6.090;2023-06-14T14:05:38;36.30;45.00
19803;DHT22;66074;50.764;6.090;2023-06-14T14:08:04;36.00;49.00
19803;DHT22;66074;50.764;6.090;2023-06-14T14:10:29;35.60;45.90
19803;DHT22;66074;50.764;6.090;2023-06-14T14:12:55;36.20;51.10
19803;DHT22;66074;50.764;6.090;2023-06-14T14:15:22;36.30;42.20
19803;DHT22;66074;50.764;6.090;2023-06-14T14:17:47;35.10;45.30
19803;DHT22;66074;50.764;6.090;2023-06-14T14:20:13;34.70;45.60
19803;DHT22;66074;50.764;6.090;2023-06-14T14:22:42;34.30;48.10
19803;DHT22;66074;50.764;6.090;2023-06-14T14:25:08;34.30;47.90
19803;DHT22;66074;50.764;6.090;2023-06-14T14:27:34;33.90;46.30
19803;DHT22;66074;50.764;6.090;2023-06-14T14:30:00;33.60;46.70
19803;DHT22;66074;50.764;6.090;2023-06-14T14:32:25;33.20;47.10
19803;DHT22;66074;50.764;6.090;2023-06-14T14:34:51;32.70;46.50
19803;DHT22;66074;50.764;6.090;2023-06-14T14:37:17;32.10;47.10
19803;DHT22;66074;50.764;6.090;2023-06-14T14:39:44;32.00;47.20
19803;DHT22;66074;50.764;6.090;2023-06-14T14:42:11;31.70;47.60
19803;DHT22;66074;50.764;6.090;2023-06-14T14:44:38;31.40;47.60
19803;DHT22;66074;50.764;6.090;2023-06-14T14:47:04;31.30;48.20
19803;DHT22;66074;50.764;6.090;2023-06-14T14:49:30;31.30;48.20
19803;DHT22;66074;50.764;6.090;2023-06-14T14:51:58;31.40;48.50
19803;DHT22;66074;50.764;6.090;2023-06-14T14:54:24;31.30;48.00
19803;DHT22;66074;50.764;6.090;2023-06-14T14:56:54;31.40;47.80
19803;DHT22;66074;50.764;6.090;2023-06-14T14:59:25;31.20;48.30
19803;DHT22;66074;50.764;6.090;2023-06-14T15:01:51;31.10;48.20
19803;DHT22;66074;50.764;6.090;2023-06-14T15:04:17;30.70;48.90
19803;DHT22;66074;50.764;6.090;2023-06-14T15:06:43;30.70;49.00
19803;DHT22;66074;50.764;6.090;2023-06-14T15:09:09;30.90;48.50
19803;DHT22;66074;50.764;6.090;2023-06-14T15:11:36;31.20;48.00
19803;DHT22;66074;50.764;6.090;2023-06-14T15:14:05;31.50;48.50
19803;DHT22;66074;50.764;6.090;2023-06-14T15:16:34;31.60;48.30
19803;DHT22;66074;50.764;6.090;2023-06-14T15:18:59;31.50;48.30
19803;DHT22;66074;50.764;6.090;2023-06-14T15:21:35;31.10;48.60
19803;DHT22;66074;50.764;6.090;2023-06-14T15:24:04;31.20;48.80
19803;DHT22;66074;50.764;6.090;2023-06-14T15:26:30;30.90;48.80
19803;DHT22;66074;50.764;6.090;2023-06-14T15:28:55;30.40;49.60
19803;DHT22;66074;50.764;6.090;2023-06-14T15:31:21;30.40;50.10
19803;DHT22;66074;50.764;6.090;2023-06-14T15:33:49;30.60;49.70
19803;DHT22;66074;50.764;6.090;2023-06-14T15:36:14;30.80;49.40
19803;DHT22;66074;50.764;6.090;2023-06-14T15:38:40;30.50;49.50
19803;DHT22;66074;50.764;6.090;2023-06-14T15:41:05;30.40;49.60
19803;DHT22;66074;50.764;6.090;2023-06-14T15:43:35;30.60;49.40
19803;DHT22;66074;50.764;6.090;2023-06-14T15:46:01;30.60;49.60
19803;DHT22;66074;50.764;6.090;2023-06-14T15:48:27;30.50;49.30
19803;DHT22;66074;50.764;6.090;2023-06-14T15:50:52;30.60;48.90